Sinisa Mladenovic

Olheiro-Chefe - Napredak
5 Dez 2027
Domingo
Processo

Personalidade

Adaptabilidade (12) Ambição (1) Controvérsia (4) Lealdade (3) Pressão (6) Profissionalismo (18) Espírito Esportivo (16) Temperamento (20)

Perfil

Estilo de Treinamento Democrático
Licença Continental C
Determinação 7
Gestão de Pessoas 7
Motivação 5
Disciplina 3
Satisfação no Trabalho
100%
Fadiga
0%
Função Olheiro-Chefe
Salário 47.8K p/s
Contrato 14.03.2030

Desempenho

Comportamento Bom
Eficácia do Treinamento
38%
Desenvolvimento do Jogador
25%
Prevenção de Lesões
15%
Implementação Tática
30%

Eventos Recentes

Participou de uma reunião de recrutamento 7d atrás
Participou de uma reunião de recrutamento 14d atrás
Participou de uma reunião de recrutamento 21d atrás
Participou de uma reunião de recrutamento 28d atrás
Participou de uma reunião de recrutamento 35d atrás
Participou de uma reunião de recrutamento 42d atrás
Participou de uma reunião de recrutamento 49d atrás
Participou de uma reunião de recrutamento 56d atrás

Monitorando agora

50
Jogador Clube Status Habilidade Confiança Observado Última observação Último voto
Aleksandar Stančić TSC Ativo 102 / 110 55% 1 23.08.2027 -
Jovan Popović Crvena Zvezda Ativo 75 / 80 55% 1 16.08.2027 -
Slobodan Tedić Akron Ativo 97 / 98 40% 2 19.01.2027 -
Milan Pavkov Cukaricki Ativo 111 / 120 40% 1 19.01.2027 -
Fejsal Mulić Novi Pazar Ativo 117 / 103 40% 2 31.12.2026 -
Niall Ennis Blackpool Ativo 121 / 111 40% 1 31.12.2026 -
Dale Taylor Blackpool Ativo 122 / 94 40% 1 30.12.2026 -
Matyáš Kozák Teplice Ativo 118 / 122 40% 1 30.12.2026 -
Bogdan Petrović TSC Ativo 97 / 109 40% 1 27.12.2026 -
Armstrong Oko-Flex Levski Ativo 131 / 121 40% 1 26.12.2026 -
Uroš Đuranović Sliema Wanderers Ativo 88 / 106 40% 1 26.12.2026 -
Driton Camaj Novi Pazar Ativo 106 / 113 40% 2 25.12.2026 -
Filip Malbašić Admira Wacker Ativo 97 / 88 40% 3 23.12.2026 -
Sam Nombe Milton Keynes Dons Ativo 122 / 125 40% 1 22.12.2026 -
Samuel Kalu Botev Plovdiv Ativo 125 / 119 40% 1 22.12.2026 -
Saša Jovanović TSC Ativo 111 / 101 40% 3 21.12.2026 -
Miloš Spasić Radnicki Nis Ativo 101 / 117 40% 2 21.12.2026 -
Mattia Bortolussi Padova Ativo 118 / 106 40% 1 20.12.2026 -
Babacar Mboup Radnicki Nis Ativo 111 / 101 40% 1 20.12.2026 -
Luka Luković IMT Ativo 113 / 111 40% 2 17.12.2026 -
Jay Stansfield Birmingham Ativo 138 / 120 40% 1 16.12.2026 -
Kyle Wootton Stockport County Ativo 107 / 108 40% 1 16.12.2026 -
Lazar Marković Apollon Ativo 117 / 145 40% 2 15.12.2026 -
Bayéré Junior Loué Javor-Matis Ativo 97 / 111 40% 1 13.12.2026 -
Yeangel Montero Naxxar Lions Ativo 123 / 108 40% 1 13.12.2026 -
Jovan Zogović Bekescsaba Ativo 99 / 85 40% 3 09.12.2026 -
Ammar Ramadan DAC Dunajska Streda Ativo 114 / 121 40% 3 08.12.2026 -
Nardin Mulahusejnović Vojvodina Ativo 112 / 121 40% 1 08.12.2026 -
Filip Holender Spartak Subotica Ativo 108 / 109 40% 1 04.12.2026 -
Andrei Dragusin Astra Ativo 141 / 134 40% 1 04.12.2026 -
Lazar Mijović Cukaricki Ativo 104 / 110 40% 1 02.12.2026 -
Kenan Dervišagić Floriana Ativo 105 / 117 40% 2 01.12.2026 -
Matěj Koubek MFK Ruzomberok Ativo 113 / 94 40% 1 01.12.2026 -
John Okoye Ebuka Ittihad Ativo 124 / 132 40% 1 29.11.2026 -
Đorđe Jovanović Radnik Surdulica Ativo 108 / 111 40% 2 28.11.2026 -
Filip Stojanovic NK Domzale Ativo 129 / 137 40% 2 26.11.2026 -
Uroš Čejić Spartak Subotica Ativo 88 / 102 40% 1 19.11.2026 -
Aleksa Vukanović Ativo 106 / 108 40% 1 19.11.2026 -
Erik Prekop Gornik Zabrze Ativo 137 / 119 40% 1 18.11.2026 -
Zoran Marušić Neftchi Ativo 134 / 109 40% 2 17.11.2026 -
Uroš Kojić AGMK Ativo 81 / 105 40% 1 14.11.2026 -
Taofeek Ismaheel Qarabag Ativo 116 / 131 40% 1 12.11.2026 -
Mohamed Ofkir Valerenga Ativo 124 / 109 40% 1 12.11.2026 -
Stefan Vukić Rudes Ativo 106 / 113 40% 1 09.11.2026 -
Samuel Tetteh Ashanti Gold Ativo 108 / 109 40% 1 09.11.2026 -
Vukašin Bogdanović Radnik Surdulica Ativo 97 / 100 40% 1 08.11.2026 -
Giacomo Vrioni Wolfsberger AC Ativo 126 / 135 40% 1 07.11.2026 -
Ethan Hoard OFK Beograd Ativo 94 / 101 40% 1 03.11.2026 -
Lewis McCann Fleetwood Town Ativo 87 / 84 40% 1 03.11.2026 -
Uroš Đerić AEL Ativo 95 / 92 40% 1 03.08.2026 -